createdAt,value
2023-05-16T00:01:52.425Z,98544.56
2023-05-16T00:04:21.578Z,98543.10
2023-05-16T00:06:49.838Z,98547.14
2023-05-16T00:09:20.594Z,98552.42
2023-05-16T00:11:48.712Z,98554.28
2023-05-16T00:14:17.233Z,98553.29
2023-05-16T00:16:45.812Z,98552.70
2023-05-16T00:19:17.195Z,98553.66
2023-05-16T00:21:45.086Z,98560.67
2023-05-16T00:24:12.858Z,98566.98
2023-05-16T00:26:40.782Z,98567.98
2023-05-16T00:29:09.262Z,98565.52
2023-05-16T00:31:37.670Z,98561.74
2023-05-16T00:34:08.716Z,98563.91
2023-05-16T00:36:36.594Z,98566.98
2023-05-16T00:39:04.434Z,98566.88
2023-05-16T00:41:34.451Z,98570.83
2023-05-16T00:44:02.427Z,98576.50
2023-05-16T00:46:30.841Z,98580.86
2023-05-16T00:48:59.143Z,98583.36
2023-05-16T00:51:27.007Z,98584.48
2023-05-16T00:53:56.983Z,98583.89
2023-05-16T00:56:25.169Z,98588.05
2023-05-16T00:58:52.950Z,98591.03
2023-05-16T01:01:25.600Z,98596.22
2023-05-16T01:03:53.956Z,98602.59
2023-05-16T01:06:22.078Z,98604.71
2023-05-16T01:08:51.152Z,98602.60
2023-05-16T01:11:33.453Z,98609.68
2023-05-16T01:14:24.469Z,98614.73
2023-05-16T01:16:58.367Z,98616.39
2023-05-16T01:19:33.273Z,98618.84
2023-05-16T01:22:17.319Z,98615.27
2023-05-16T01:25:10.654Z,98612.09
2023-05-16T01:27:39.292Z,98612.23
2023-05-16T01:30:16.961Z,98611.20
2023-05-16T01:32:46.041Z,98609.59
2023-05-16T01:35:17.590Z,98604.83
2023-05-16T01:37:52.906Z,98609.94
2023-05-16T01:40:35.338Z,98612.73
2023-05-16T01:43:09.465Z,98612.03
2023-05-16T01:48:25.899Z,98607.34
2023-05-16T01:50:57.637Z,98605.31
2023-05-16T01:53:34.212Z,98608.83
2023-05-16T01:56:02.915Z,98600.28
2023-05-16T01:58:35.168Z,98603.41
2023-05-16T02:01:05.773Z,98606.34
2023-05-16T02:03:35.126Z,98601.21
2023-05-16T02:06:03.063Z,98602.78
2023-05-16T02:08:31.784Z,98601.27
2023-05-16T02:10:59.779Z,98605.39
2023-05-16T02:13:27.956Z,98609.14
2023-05-16T02:15:55.764Z,98610.17
2023-05-16T02:18:23.820Z,98609.09
2023-05-16T02:20:52.039Z,98602.50
2023-05-16T02:23:19.818Z,98606.91
2023-05-16T02:25:47.560Z,98608.11
2023-05-16T02:28:15.759Z,98614.70
2023-05-16T02:30:43.555Z,98618.44
2023-05-16T02:33:11.891Z,98625.41
2023-05-16T02:35:39.714Z,98628.30
2023-05-16T02:38:07.647Z,98629.10
2023-05-16T02:40:35.632Z,98631.91
2023-05-16T02:43:03.988Z,98628.35
2023-05-16T02:45:32.028Z,98621.55
2023-05-16T02:47:59.898Z,98625.04
2023-05-16T02:50:27.696Z,98626.95
2023-05-16T02:52:55.559Z,98629.54
2023-05-16T02:55:23.317Z,98627.41
2023-05-16T02:57:52.518Z,98627.80
2023-05-16T03:00:21.311Z,98629.39
2023-05-16T03:02:49.424Z,98633.70
2023-05-16T03:05:17.572Z,98631.66
2023-05-16T03:07:45.454Z,98632.55
2023-05-16T03:10:13.257Z,98632.18
2023-05-16T03:12:40.985Z,98633.50
2023-05-16T03:15:09.415Z,98632.12
2023-05-16T03:17:37.183Z,98631.59
2023-05-16T03:20:09.125Z,98630.68
2023-05-16T03:22:37.444Z,98637.19
2023-05-16T03:25:05.856Z,98643.08
2023-05-16T03:27:33.636Z,98650.66
2023-05-16T03:30:01.347Z,98652.45
2023-05-16T03:32:29.110Z,98659.08
2023-05-16T03:34:56.997Z,98658.11
2023-05-16T03:37:26.086Z,98657.11
2023-05-16T03:39:55.943Z,98657.13
2023-05-16T03:42:32.381Z,98663.61
2023-05-16T03:45:01.673Z,98665.76
2023-05-16T03:47:31.437Z,98656.63
2023-05-16T03:49:59.208Z,98662.24
2023-05-16T03:52:27.164Z,98665.09
2023-05-16T03:54:54.976Z,98669.67
2023-05-16T03:57:22.994Z,98672.70
2023-05-16T03:59:50.785Z,98673.68
2023-05-16T04:02:18.968Z,98677.68
2023-05-16T04:04:47.473Z,98683.84
2023-05-16T04:07:15.744Z,98686.50
2023-05-16T04:09:58.921Z,98675.16
2023-05-16T04:12:27.214Z,98669.44
2023-05-16T04:14:57.671Z,98667.09
2023-05-16T04:17:28.183Z,98669.00
2023-05-16T04:19:56.566Z,98665.84
2023-05-16T04:22:24.534Z,98660.95
2023-05-16T04:24:52.320Z,98665.02
2023-05-16T04:27:23.298Z,98667.58
2023-05-16T04:33:17.009Z,98660.98
2023-05-16T04:35:48.722Z,98660.55
2023-05-16T04:38:17.003Z,98662.14
2023-05-16T04:40:44.967Z,98664.29
2023-05-16T04:43:13.209Z,98665.05
2023-05-16T04:45:42.899Z,98671.98
2023-05-16T04:48:12.021Z,98675.67
2023-05-16T04:50:39.756Z,98675.96
2023-05-16T04:53:07.568Z,98678.70
2023-05-16T04:55:35.455Z,98676.78
2023-05-16T04:58:03.799Z,98677.05
2023-05-16T05:00:32.173Z,98674.52
2023-05-16T05:03:00.480Z,98684.05
2023-05-16T05:05:28.456Z,98688.40
2023-05-16T05:07:58.515Z,98688.30
2023-05-16T05:10:32.070Z,98683.54
2023-05-16T05:13:00.434Z,98682.19
2023-05-16T05:15:28.344Z,98692.83
2023-05-16T05:17:56.387Z,98695.42
2023-05-16T05:20:24.817Z,98695.95
2023-05-16T05:22:57.398Z,98693.25
2023-05-16T05:25:26.029Z,98687.27
2023-05-16T05:27:54.325Z,98688.81
2023-05-16T05:30:22.102Z,98689.98
2023-05-16T05:32:50.095Z,98697.69
2023-05-16T05:35:18.156Z,98705.60
2023-05-16T05:37:46.428Z,98710.52
2023-05-16T05:40:14.658Z,98713.98
2023-05-16T05:42:45.398Z,98705.04
2023-05-16T05:45:16.319Z,98700.96
2023-05-16T05:47:44.368Z,98704.45
2023-05-16T05:50:13.120Z,98709.61
2023-05-16T05:52:40.988Z,98720.35
2023-05-16T05:55:09.410Z,98730.48
2023-05-16T05:57:37.836Z,98737.31
2023-05-16T06:00:07.957Z,98740.03
2023-05-16T06:02:36.168Z,98733.05
2023-05-16T06:05:04.667Z,98731.52
2023-05-16T06:07:32.492Z,98731.29
2023-05-16T06:10:05.290Z,98732.92
2023-05-16T06:12:33.889Z,98734.42
2023-05-16T06:15:04.645Z,98734.80
2023-05-16T06:17:32.618Z,98737.98
2023-05-16T06:20:00.432Z,98734.86
2023-05-16T06:22:28.776Z,98737.61
2023-05-16T06:24:57.689Z,98735.14
2023-05-16T06:27:25.728Z,98740.45
2023-05-16T06:29:53.639Z,98748.74
2023-05-16T06:32:24.623Z,98754.97
2023-05-16T06:34:52.950Z,98754.12
2023-05-16T06:37:26.615Z,98755.95
2023-05-16T06:40:00.542Z,98757.66
2023-05-16T06:42:28.377Z,98747.30
2023-05-16T06:44:56.183Z,98746.88
2023-05-16T06:47:24.429Z,98749.58
2023-05-16T06:49:53.498Z,98754.41
2023-05-16T06:52:25.655Z,98761.10
2023-05-16T06:54:53.721Z,98772.15
2023-05-16T06:57:21.653Z,98767.49
2023-05-16T06:59:49.472Z,98764.91
2023-05-16T07:02:17.793Z,98761.18
2023-05-16T07:04:46.724Z,98758.42
2023-05-16T07:07:15.366Z,98770.08
2023-05-16T07:09:43.689Z,98779.43
2023-05-16T07:12:11.674Z,98781.95
2023-05-16T07:14:41.145Z,98774.91
2023-05-16T07:17:09.581Z,98777.71
2023-05-16T07:19:37.887Z,98775.94
2023-05-16T07:22:05.789Z,98777.52
2023-05-16T07:24:33.595Z,98771.54
2023-05-16T07:27:01.388Z,98774.42
2023-05-16T07:29:30.522Z,98780.66
2023-05-16T07:31:59.591Z,98778.16
2023-05-16T07:34:28.053Z,98772.73
2023-05-16T07:36:55.849Z,98774.34
2023-05-16T07:39:23.629Z,98779.12
2023-05-16T07:41:51.557Z,98778.51
2023-05-16T07:44:19.483Z,98771.48
2023-05-16T07:46:47.690Z,98771.35
2023-05-16T07:49:16.333Z,98768.38
2023-05-16T07:51:44.391Z,98773.48
2023-05-16T07:54:12.130Z,98773.61
2023-05-16T07:56:39.990Z,98781.73
2023-05-16T07:59:08.078Z,98782.55
2023-05-16T08:01:37.567Z,98783.77
2023-05-16T08:04:05.967Z,98788.34
2023-05-16T08:06:34.798Z,98783.02
2023-05-16T08:09:02.777Z,98776.15
2023-05-16T08:11:30.694Z,98784.00
2023-05-16T08:13:58.519Z,98790.52
2023-05-16T08:16:26.833Z,98791.98
2023-05-16T08:18:55.635Z,98795.23
2023-05-16T08:21:23.696Z,98791.67
2023-05-16T08:23:51.856Z,98787.90
2023-05-16T08:26:19.605Z,98785.84
2023-05-16T08:28:48.027Z,98791.40
2023-05-16T08:31:16.716Z,98788.58
2023-05-16T08:33:45.231Z,98786.01
2023-05-16T08:36:13.239Z,98791.23
2023-05-16T08:38:41.144Z,98795.20
2023-05-16T08:41:08.899Z,98792.84
2023-05-16T08:43:36.900Z,98787.48
2023-05-16T08:46:08.355Z,98788.11
2023-05-16T08:48:37.411Z,98792.99
2023-05-16T08:51:08.219Z,98791.86
2023-05-16T08:53:43.284Z,98792.35
2023-05-16T08:56:14.274Z,98795.97
2023-05-16T08:58:42.204Z,98799.10
2023-05-16T09:01:10.843Z,98800.62
2023-05-16T09:03:39.670Z,98806.20
2023-05-16T09:06:08.454Z,98797.95
2023-05-16T09:08:36.930Z,98800.39
2023-05-16T09:11:05.524Z,98800.38
2023-05-16T09:13:33.389Z,98802.45
2023-05-16T09:16:19.058Z,98806.15
2023-05-16T09:18:55.574Z,98808.61
2023-05-16T09:21:35.276Z,98806.16
2023-05-16T09:24:08.201Z,98803.98
2023-05-16T09:26:38.543Z,98798.42
2023-05-16T09:29:14.190Z,98792.94
2023-05-16T09:31:42.932Z,98791.24
2023-05-16T09:34:12.932Z,98791.83
2023-05-16T09:36:42.890Z,98783.39
2023-05-16T09:39:15.724Z,98794.21
2023-05-16T09:41:44.009Z,98799.29
2023-05-16T09:44:13.082Z,98797.60
2023-05-16T09:46:41.420Z,98791.44
2023-05-16T09:49:13.056Z,98789.65
2023-05-16T09:51:41.608Z,98793.02
2023-05-16T09:54:10.088Z,98787.02
2023-05-16T09:56:52.290Z,98781.79
2023-05-16T09:59:20.119Z,98784.41
2023-05-16T10:01:49.226Z,98787.41
2023-05-16T10:04:17.290Z,98787.55
2023-05-16T10:06:46.371Z,98786.64
2023-05-16T10:09:17.089Z,98785.23
2023-05-16T10:11:45.271Z,98791.09
2023-05-16T10:14:17.912Z,98789.52
2023-05-16T10:16:48.945Z,98783.55
2023-05-16T10:19:21.824Z,98786.25
2023-05-16T10:21:55.436Z,98785.17
2023-05-16T10:24:29.717Z,98782.25
2023-05-16T10:26:57.933Z,98783.83
2023-05-16T10:29:27.014Z,98777.12
2023-05-16T10:31:55.388Z,98783.66
2023-05-16T10:34:23.509Z,98783.77
2023-05-16T10:36:52.451Z,98778.17
2023-05-16T10:39:21.445Z,98778.27
2023-05-16T10:41:49.559Z,98772.77
2023-05-16T10:44:17.855Z,98772.68
2023-05-16T10:46:48.339Z,98770.45
2023-05-16T10:49:21.346Z,98769.20
2023-05-16T10:52:07.616Z,98774.27
2023-05-16T10:54:37.432Z,98782.36
2023-05-16T10:57:26.186Z,98783.97
2023-05-16T10:59:57.268Z,98779.81
2023-05-16T11:02:29.578Z,98790.64
2023-05-16T11:04:59.858Z,98790.94
2023-05-16T11:07:34.713Z,98791.02
2023-05-16T11:10:05.918Z,98785.80
2023-05-16T11:12:52.609Z,98783.00
2023-05-16T11:15:32.448Z,98785.30
2023-05-16T11:18:50.486Z,98785.02
2023-05-16T11:21:18.348Z,98783.06
2023-05-16T11:24:26.155Z,98783.63
2023-05-16T11:26:53.951Z,98794.91
2023-05-16T11:29:22.455Z,98791.41
2023-05-16T11:31:51.982Z,98792.89
2023-05-16T11:34:19.970Z,98791.27
2023-05-16T11:36:48.294Z,98787.02
2023-05-16T11:39:16.647Z,98784.12
2023-05-16T11:41:44.593Z,98783.92
2023-05-16T11:44:13.025Z,98787.63
2023-05-16T11:46:41.642Z,98785.39
2023-05-16T11:49:10.371Z,98783.52
2023-05-16T11:51:43.381Z,98781.48
2023-05-16T11:54:13.056Z,98782.82
2023-05-16T11:56:42.893Z,98784.38
2023-05-16T11:59:11.682Z,98781.52
2023-05-16T12:01:40.590Z,98779.10
2023-05-16T12:04:13.150Z,98775.77
2023-05-16T12:06:47.786Z,98775.48
2023-05-16T12:09:18.396Z,98764.55
2023-05-16T12:11:46.407Z,98766.58
2023-05-16T12:14:14.628Z,98770.17
2023-05-16T12:16:44.056Z,98769.44
2023-05-16T12:19:14.234Z,98770.25
2023-05-16T12:21:42.749Z,98772.40
2023-05-16T12:24:12.997Z,98774.05
2023-05-16T12:26:43.649Z,98772.65
2023-05-16T12:29:11.696Z,98772.17
2023-05-16T12:31:41.732Z,98773.14
2023-05-16T12:34:20.634Z,98769.09
2023-05-16T12:36:53.903Z,98767.41
2023-05-16T12:39:25.737Z,98767.55
2023-05-16T12:41:53.501Z,98767.70
2023-05-16T12:44:23.724Z,98766.27
2023-05-16T12:46:55.244Z,98765.96
2023-05-16T12:49:23.356Z,98767.09
2023-05-16T12:51:57.430Z,98765.08
2023-05-16T12:54:25.592Z,98767.84
2023-05-16T12:56:53.538Z,98765.02
2023-05-16T12:59:22.240Z,98757.67
2023-05-16T13:01:51.042Z,98758.50
2023-05-16T13:04:20.544Z,98758.00
2023-05-16T13:06:59.153Z,98760.30
2023-05-16T13:09:31.439Z,98758.61
2023-05-16T13:12:01.519Z,98753.91
2023-05-16T13:14:29.382Z,98747.20
2023-05-16T13:16:57.179Z,98745.41
2023-05-16T13:19:25.134Z,98746.96
2023-05-16T13:21:53.111Z,98748.96
2023-05-16T13:24:21.302Z,98746.23
2023-05-16T13:26:49.591Z,98742.35
2023-05-16T13:29:17.385Z,98734.73
2023-05-16T13:31:45.258Z,98740.94
2023-05-16T13:34:13.098Z,98743.42
2023-05-16T13:36:53.247Z,98744.98
2023-05-16T13:39:23.138Z,98738.67
2023-05-16T13:41:52.260Z,98734.95
2023-05-16T13:44:20.102Z,98736.16
2023-05-16T13:46:48.623Z,98740.37
2023-05-16T13:49:16.455Z,98743.30
2023-05-16T13:51:45.045Z,98744.58
2023-05-16T13:54:12.994Z,98743.27
2023-05-16T13:56:46.256Z,98744.13
2023-05-16T13:59:55.129Z,98747.30
2023-05-16T14:02:17.132Z,98744.40
2023-05-16T14:04:46.812Z,98747.25
2023-05-16T14:07:16.815Z,98751.67
2023-05-16T14:09:45.423Z,98747.15
2023-05-16T14:12:13.297Z,98750.60
2023-05-16T14:14:41.581Z,98749.42
2023-05-16T14:17:10.064Z,98749.23
2023-05-16T14:19:37.932Z,98751.02
2023-05-16T14:22:06.307Z,98753.40
2023-05-16T14:24:34.389Z,98752.30
2023-05-16T14:27:03.317Z,98748.71
2023-05-16T14:29:31.240Z,98744.02
2023-05-16T14:31:59.778Z,98747.84
2023-05-16T14:34:27.733Z,98748.81
2023-05-16T14:36:56.143Z,98746.49
2023-05-16T14:39:24.041Z,98744.64
2023-05-16T14:41:51.994Z,98739.17
2023-05-16T14:44:21.915Z,98745.19
2023-05-16T14:46:51.804Z,98742.39
2023-05-16T14:49:19.639Z,98747.39
2023-05-16T14:51:50.512Z,98744.71
2023-05-16T14:54:19.204Z,98746.39
2023-05-16T14:56:47.082Z,98744.92
2023-05-16T14:59:15.282Z,98746.95
2023-05-16T15:01:43.652Z,98750.79
2023-05-16T15:04:12.122Z,98755.55
2023-05-16T15:06:39.953Z,98752.88
2023-05-16T15:09:07.820Z,98753.94
2023-05-16T15:11:36.266Z,98754.11
2023-05-16T15:14:04.230Z,98753.98
2023-05-16T15:16:32.674Z,98753.58
2023-05-16T15:19:01.183Z,98749.52
2023-05-16T15:21:29.222Z,98747.17
2023-05-16T15:23:57.119Z,98745.83
2023-05-16T15:26:25.028Z,98741.95
2023-05-16T15:28:55.647Z,98736.08
2023-05-16T15:31:23.977Z,98734.75
2023-05-16T15:33:52.084Z,98728.25
2023-05-16T15:36:20.796Z,98732.48
2023-05-16T15:38:48.671Z,98729.54
2023-05-16T15:41:36.813Z,98726.55
2023-05-16T15:44:05.144Z,98725.98
2023-05-16T15:46:33.749Z,98722.86
2023-05-16T15:49:02.267Z,98722.15
2023-05-16T15:51:30.063Z,98721.58
2023-05-16T15:53:58.068Z,98717.43
2023-05-16T15:56:25.961Z,98718.74
2023-05-16T15:58:56.196Z,98716.80
2023-05-16T16:01:24.255Z,98719.41
2023-05-16T16:03:52.832Z,98719.16
2023-05-16T16:06:21.658Z,98715.42
2023-05-16T16:08:49.764Z,98715.58
2023-05-16T16:11:20.107Z,98714.41
2023-05-16T16:13:48.530Z,98714.19
2023-05-16T16:16:17.394Z,98718.45
2023-05-16T16:18:45.440Z,98712.75
2023-05-16T16:21:13.433Z,98709.11
2023-05-16T16:23:42.249Z,98711.77
2023-05-16T16:26:10.058Z,98709.34
2023-05-16T16:28:38.536Z,98705.52
2023-05-16T16:31:25.914Z,98706.44
2023-05-16T16:33:54.873Z,98707.20
2023-05-16T16:36:22.810Z,98707.25
2023-05-16T16:38:51.560Z,98708.83
2023-05-16T16:41:20.011Z,98703.89
2023-05-16T16:43:48.179Z,98707.95
2023-05-16T16:46:16.306Z,98700.74
2023-05-16T16:48:44.406Z,98703.90
2023-05-16T16:51:12.979Z,98703.86
2023-05-16T16:54:00.200Z,98699.86
2023-05-16T16:56:29.569Z,98700.74
2023-05-16T16:58:57.642Z,98699.46
2023-05-16T17:01:27.166Z,98695.79
2023-05-16T17:03:58.566Z,98694.36
2023-05-16T17:06:26.721Z,98694.25
2023-05-16T17:08:54.732Z,98693.23
2023-05-16T17:11:23.613Z,98690.55
2023-05-16T17:13:52.033Z,98691.51
2023-05-16T17:16:20.348Z,98694.09
2023-05-16T17:18:48.841Z,98691.71
2023-05-16T17:21:23.053Z,98688.42
2023-05-16T17:23:51.309Z,98684.48
2023-05-16T17:26:19.417Z,98683.45
2023-05-16T17:28:47.267Z,98680.44
2023-05-16T17:31:16.024Z,98677.25
2023-05-16T17:33:44.568Z,98678.84
2023-05-16T17:36:15.406Z,98678.23
2023-05-16T17:38:43.233Z,98679.91
2023-05-16T17:41:11.129Z,98680.77
2023-05-16T17:43:39.998Z,98682.29
2023-05-16T17:46:08.569Z,98681.84
2023-05-16T17:48:36.435Z,98682.57
2023-05-16T17:51:04.728Z,98683.70
2023-05-16T17:53:32.818Z,98682.44
2023-05-16T17:56:00.728Z,98678.11
2023-05-16T17:59:05.170Z,98679.61
2023-05-16T18:01:40.271Z,98671.83
2023-05-16T18:04:08.954Z,98671.10
2023-05-16T18:06:38.261Z,98666.56
2023-05-16T18:09:09.889Z,98667.38
2023-05-16T18:11:40.756Z,98671.83
2023-05-16T18:14:09.546Z,98674.44
2023-05-16T18:16:37.500Z,98678.02
2023-05-16T18:19:05.698Z,98679.24
2023-05-16T18:21:33.905Z,98674.15
2023-05-16T18:24:02.128Z,98674.27
2023-05-16T18:26:30.752Z,98674.42
2023-05-16T18:28:59.400Z,98674.49
2023-05-16T18:31:27.605Z,98674.77
2023-05-16T18:33:55.778Z,98675.33
2023-05-16T18:36:23.588Z,98678.50
2023-05-16T18:38:51.609Z,98678.06
2023-05-16T18:41:20.026Z,98677.03
2023-05-16T18:43:48.458Z,98681.48
2023-05-16T18:46:16.360Z,98678.64
2023-05-16T18:48:44.259Z,98677.92
2023-05-16T18:51:12.226Z,98680.45
2023-05-16T18:53:40.121Z,98678.45
2023-05-16T18:56:08.481Z,98681.02
2023-05-16T18:58:36.919Z,98682.06
2023-05-16T19:01:04.827Z,98677.40
2023-05-16T19:03:33.057Z,98678.22
2023-05-16T19:06:01.329Z,98678.97
2023-05-16T19:08:40.400Z,98681.33
2023-05-16T19:11:17.811Z,98683.52
2023-05-16T19:13:47.231Z,98681.71
2023-05-16T19:16:15.332Z,98678.05
2023-05-16T19:18:43.440Z,98677.10
2023-05-16T19:21:13.649Z,98677.48
2023-05-16T19:23:41.747Z,98680.45
2023-05-16T19:26:09.614Z,98677.62
2023-05-16T19:28:38.019Z,98678.61
2023-05-16T19:31:06.941Z,98680.91
2023-05-16T19:33:34.818Z,98684.02
2023-05-16T19:36:05.997Z,98679.27
2023-05-16T19:38:33.842Z,98680.16
2023-05-16T19:41:01.847Z,98682.80
2023-05-16T19:43:30.995Z,98680.83
2023-05-16T19:45:59.262Z,98681.48
2023-05-16T19:48:28.153Z,98677.45
2023-05-16T19:50:56.208Z,98678.08
2023-05-16T19:53:24.135Z,98678.04
2023-05-16T19:55:52.014Z,98679.94
2023-05-16T19:58:20.435Z,98678.48
2023-05-16T20:00:51.361Z,98675.40
2023-05-16T20:03:19.467Z,98674.93
2023-05-16T20:05:47.401Z,98676.72
2023-05-16T20:08:15.319Z,98675.92
2023-05-16T20:10:43.556Z,98674.11
2023-05-16T20:13:12.028Z,98672.80
2023-05-16T20:15:40.578Z,98672.00
2023-05-16T20:18:08.566Z,98669.43
2023-05-16T20:20:36.619Z,98663.60
2023-05-16T20:23:04.658Z,98658.90
2023-05-16T20:25:32.656Z,98653.61
2023-05-16T20:28:01.868Z,98645.43
2023-05-16T20:30:32.371Z,98636.55
2023-05-16T20:33:00.316Z,98637.39
2023-05-16T20:35:28.950Z,98634.92
2023-05-16T20:37:56.938Z,98635.55
2023-05-16T20:40:24.868Z,98635.48
2023-05-16T20:42:53.133Z,98631.23
2023-05-16T20:45:22.315Z,98634.39
2023-05-16T20:47:51.410Z,98629.56
2023-05-16T20:50:19.609Z,98631.17
2023-05-16T20:52:47.442Z,98627.23
2023-05-16T20:55:15.824Z,98623.86
2023-05-16T20:57:44.184Z,98616.67
2023-05-16T21:00:12.774Z,98615.39
2023-05-16T21:02:40.693Z,98613.51
2023-05-16T21:05:22.925Z,98614.59
2023-05-16T21:07:56.979Z,98614.19
2023-05-16T21:10:25.627Z,98614.37
2023-05-16T21:12:53.523Z,98608.93
2023-05-16T21:15:23.209Z,98606.52
2023-05-16T21:17:51.668Z,98606.61
2023-05-16T21:20:20.144Z,98607.20
2023-05-16T21:22:48.690Z,98605.92
2023-05-16T21:25:16.934Z,98604.38
2023-05-16T21:27:44.987Z,98606.80
2023-05-16T21:30:13.540Z,98604.41
2023-05-16T21:32:41.882Z,98605.16
2023-05-16T21:35:10.360Z,98599.48
2023-05-16T21:37:38.177Z,98596.95
2023-05-16T21:40:09.340Z,98597.24
2023-05-16T21:42:37.424Z,98591.52
2023-05-16T21:45:05.988Z,98587.80
2023-05-16T21:47:34.494Z,98585.96
2023-05-16T21:50:03.104Z,98584.65
2023-05-16T21:52:30.939Z,98580.55
2023-05-16T21:54:58.788Z,98572.41
2023-05-16T21:57:27.337Z,98568.19
2023-05-16T21:59:55.913Z,98565.02
2023-05-16T22:02:24.128Z,98558.15
2023-05-16T22:04:58.682Z,98560.16
2023-05-16T22:07:29.343Z,98558.38
2023-05-16T22:09:58.384Z,98557.86
2023-05-16T22:12:27.603Z,98553.96
2023-05-16T22:14:55.688Z,98552.29
2023-05-16T22:17:23.641Z,98551.45
2023-05-16T22:19:51.564Z,98549.81
2023-05-16T22:22:20.205Z,98552.22
2023-05-16T22:24:48.788Z,98555.63
2023-05-16T22:27:16.614Z,98554.61
2023-05-16T22:29:44.431Z,98551.95
2023-05-16T22:32:12.457Z,98553.33
2023-05-16T22:34:40.322Z,98549.86
2023-05-16T22:37:11.178Z,98544.30
2023-05-16T22:39:39.432Z,98542.60
2023-05-16T22:42:07.395Z,98539.26
2023-05-16T22:44:35.210Z,98538.92
2023-05-16T22:47:06.315Z,98537.48
2023-05-16T22:49:34.326Z,98537.85
2023-05-16T22:52:02.148Z,98541.09
2023-05-16T22:54:49.250Z,98539.52
2023-05-16T22:57:17.259Z,98539.04
2023-05-16T22:59:45.061Z,98538.16
2023-05-16T23:02:13.361Z,98531.02
2023-05-16T23:04:41.767Z,98525.97
2023-05-16T23:07:09.695Z,98523.29
2023-05-16T23:09:37.637Z,98517.19
2023-05-16T23:12:06.037Z,98516.23
2023-05-16T23:14:33.896Z,98519.27
2023-05-16T23:17:02.190Z,98518.38
2023-05-16T23:19:30.715Z,98523.67
2023-05-16T23:21:58.698Z,98529.83
2023-05-16T23:24:26.540Z,98535.41
2023-05-16T23:26:54.389Z,98531.66
2023-05-16T23:29:22.186Z,98525.06
2023-05-16T23:31:50.698Z,98527.79
2023-05-16T23:34:19.185Z,98528.23
2023-05-16T23:36:46.964Z,98527.53
2023-05-16T23:42:18.122Z,98521.54
2023-05-16T23:44:46.452Z,98514.30
2023-05-16T23:47:14.799Z,98507.27
2023-05-16T23:49:42.644Z,98497.28
2023-05-16T23:52:10.627Z,98495.32
2023-05-16T23:54:56.978Z,98493.30
2023-05-16T23:57:25.548Z,98491.48
2023-05-16T23:59:53.484Z,98486.46
